sensor_id;sensor_type;location;lat;lon;timestamp;P1;durP1;ratioP1;P2;durP2;ratioP2
50681;SDS011;36779;52.168;20.878;2023-03-20T00:00:00;79.20;;;30.70;;
50681;SDS011;36779;52.168;20.878;2023-03-20T00:02:32;69.90;;;29.20;;
50681;SDS011;36779;52.168;20.878;2023-03-20T00:05:01;86.70;;;30.30;;
50681;SDS011;36779;52.168;20.878;2023-03-20T00:07:34;77.40;;;29.60;;
50681;SDS011;36779;52.168;20.878;2023-03-20T00:10:06;77.20;;;28.60;;
50681;SDS011;36779;52.168;20.878;2023-03-20T00:12:39;67.70;;;29.00;;
50681;SDS011;36779;52.168;20.878;2023-03-20T00:15:18;71.50;;;28.10;;
50681;SDS011;36779;52.168;20.878;2023-03-20T00:17:52;69.60;;;29.00;;
50681;SDS011;36779;52.168;20.878;2023-03-20T00:20:21;76.10;;;30.80;;
50681;SDS011;36779;52.168;20.878;2023-03-20T00:22:51;77.10;;;28.90;;
50681;SDS011;36779;52.168;20.878;2023-03-20T00:25:24;76.80;;;27.90;;
50681;SDS011;36779;52.168;20.878;2023-03-20T00:27:55;75.50;;;28.90;;
50681;SDS011;36779;52.168;20.878;2023-03-20T00:30:27;70.80;;;27.00;;
50681;SDS011;36779;52.168;20.878;2023-03-20T00:32:57;71.40;;;28.70;;
50681;SDS011;36779;52.168;20.878;2023-03-20T00:35:29;69.50;;;25.90;;
50681;SDS011;36779;52.168;20.878;2023-03-20T00:38:00;72.70;;;28.30;;
50681;SDS011;36779;52.168;20.878;2023-03-20T00:40:34;74.40;;;28.30;;
50681;SDS011;36779;52.168;20.878;2023-03-20T00:43:03;66.00;;;26.50;;
50681;SDS011;36779;52.168;20.878;2023-03-20T00:45:33;70.00;;;27.30;;
50681;SDS011;36779;52.168;20.878;2023-03-20T00:48:04;71.80;;;28.10;;
50681;SDS011;36779;52.168;20.878;2023-03-20T00:50:38;66.60;;;28.70;;
50681;SDS011;36779;52.168;20.878;2023-03-20T00:53:08;73.50;;;27.80;;
50681;SDS011;36779;52.168;20.878;2023-03-20T00:55:39;67.50;;;27.70;;
50681;SDS011;36779;52.168;20.878;2023-03-20T00:58:08;65.30;;;25.90;;
50681;SDS011;36779;52.168;20.878;2023-03-20T01:00:40;66.10;;;26.30;;
50681;SDS011;36779;52.168;20.878;2023-03-20T01:03:14;66.80;;;27.80;;
50681;SDS011;36779;52.168;20.878;2023-03-20T01:05:47;65.50;;;26.40;;
50681;SDS011;36779;52.168;20.878;2023-03-20T01:08:18;73.80;;;27.10;;
50681;SDS011;36779;52.168;20.878;2023-03-20T01:10:50;68.80;;;27.50;;
50681;SDS011;36779;52.168;20.878;2023-03-20T01:13:24;71.30;;;27.60;;
50681;SDS011;36779;52.168;20.878;2023-03-20T01:15:54;68.10;;;27.10;;
50681;SDS011;36779;52.168;20.878;2023-03-20T01:18:24;72.50;;;28.50;;
50681;SDS011;36779;52.168;20.878;2023-03-20T01:20:54;68.50;;;27.50;;
50681;SDS011;36779;52.168;20.878;2023-03-20T01:23:23;66.10;;;27.30;;
50681;SDS011;36779;52.168;20.878;2023-03-20T01:25:53;69.70;;;29.10;;
50681;SDS011;36779;52.168;20.878;2023-03-20T01:28:22;73.20;;;28.10;;
50681;SDS011;36779;52.168;20.878;2023-03-20T01:30:51;64.00;;;27.00;;
50681;SDS011;36779;52.168;20.878;2023-03-20T01:33:22;67.60;;;29.40;;
50681;SDS011;36779;52.168;20.878;2023-03-20T01:35:55;72.60;;;27.00;;
50681;SDS011;36779;52.168;20.878;2023-03-20T01:38:26;72.50;;;27.50;;
50681;SDS011;36779;52.168;20.878;2023-03-20T01:40:56;75.50;;;28.60;;
50681;SDS011;36779;52.168;20.878;2023-03-20T01:43:31;66.70;;;26.80;;
50681;SDS011;36779;52.168;20.878;2023-03-20T01:46:02;70.60;;;26.60;;
50681;SDS011;36779;52.168;20.878;2023-03-20T01:48:56;75.30;;;27.80;;
50681;SDS011;36779;52.168;20.878;2023-03-20T01:51:29;67.40;;;27.10;;
50681;SDS011;36779;52.168;20.878;2023-03-20T01:54:03;68.40;;;27.60;;
50681;SDS011;36779;52.168;20.878;2023-03-20T01:56:57;71.10;;;27.20;;
50681;SDS011;36779;52.168;20.878;2023-03-20T01:59:31;64.00;;;25.90;;
50681;SDS011;36779;52.168;20.878;2023-03-20T02:02:04;65.40;;;26.80;;
50681;SDS011;36779;52.168;20.878;2023-03-20T02:04:40;65.50;;;27.60;;
50681;SDS011;36779;52.168;20.878;2023-03-20T02:07:15;64.20;;;26.90;;
50681;SDS011;36779;52.168;20.878;2023-03-20T02:09:58;66.70;;;27.20;;
50681;SDS011;36779;52.168;20.878;2023-03-20T02:12:37;69.70;;;28.10;;
50681;SDS011;36779;52.168;20.878;2023-03-20T02:15:08;78.00;;;28.00;;
50681;SDS011;36779;52.168;20.878;2023-03-20T02:18:04;64.50;;;25.30;;
50681;SDS011;36779;52.168;20.878;2023-03-20T02:20:35;68.30;;;26.00;;
50681;SDS011;36779;52.168;20.878;2023-03-20T02:23:25;67.20;;;25.40;;
50681;SDS011;36779;52.168;20.878;2023-03-20T02:26:23;58.10;;;21.50;;
50681;SDS011;36779;52.168;20.878;2023-03-20T02:38:07;64.20;;;25.20;;
50681;SDS011;36779;52.168;20.878;2023-03-20T02:40:55;64.80;;;26.60;;
50681;SDS011;36779;52.168;20.878;2023-03-20T02:43:36;63.60;;;25.30;;
50681;SDS011;36779;52.168;20.878;2023-03-20T02:46:12;62.20;;;24.50;;
50681;SDS011;36779;52.168;20.878;2023-03-20T02:49:00;59.50;;;24.70;;
50681;SDS011;36779;52.168;20.878;2023-03-20T02:51:39;69.10;;;25.10;;
50681;SDS011;36779;52.168;20.878;2023-03-20T02:54:17;61.40;;;24.10;;
50681;SDS011;36779;52.168;20.878;2023-03-20T02:56:57;53.10;;;22.70;;
50681;SDS011;36779;52.168;20.878;2023-03-20T02:59:33;62.20;;;24.30;;
50681;SDS011;36779;52.168;20.878;2023-03-20T03:02:08;66.10;;;24.00;;
50681;SDS011;36779;52.168;20.878;2023-03-20T03:04:43;64.40;;;24.80;;
50681;SDS011;36779;52.168;20.878;2023-03-20T03:07:17;59.50;;;22.90;;
50681;SDS011;36779;52.168;20.878;2023-03-20T03:09:54;49.40;;;21.80;;
50681;SDS011;36779;52.168;20.878;2023-03-20T03:12:28;54.60;;;21.30;;
50681;SDS011;36779;52.168;20.878;2023-03-20T03:15:01;60.40;;;23.20;;
50681;SDS011;36779;52.168;20.878;2023-03-20T03:17:36;60.80;;;23.20;;
50681;SDS011;36779;52.168;20.878;2023-03-20T03:20:13;66.40;;;24.90;;
50681;SDS011;36779;52.168;20.878;2023-03-20T03:22:48;71.00;;;25.40;;
50681;SDS011;36779;52.168;20.878;2023-03-20T03:25:17;55.70;;;23.40;;
50681;SDS011;36779;52.168;20.878;2023-03-20T03:27:59;58.40;;;23.80;;
50681;SDS011;36779;52.168;20.878;2023-03-20T03:30:35;58.90;;;22.80;;
50681;SDS011;36779;52.168;20.878;2023-03-20T03:33:08;56.70;;;24.10;;
50681;SDS011;36779;52.168;20.878;2023-03-20T03:35:48;60.80;;;23.40;;
50681;SDS011;36779;52.168;20.878;2023-03-20T03:38:27;58.10;;;24.30;;
50681;SDS011;36779;52.168;20.878;2023-03-20T03:41:06;62.90;;;24.70;;
50681;SDS011;36779;52.168;20.878;2023-03-20T03:43:57;65.60;;;23.70;;
50681;SDS011;36779;52.168;20.878;2023-03-20T03:46:36;59.10;;;23.10;;
50681;SDS011;36779;52.168;20.878;2023-03-20T03:49:12;63.00;;;24.20;;
50681;SDS011;36779;52.168;20.878;2023-03-20T03:51:48;62.70;;;25.10;;
50681;SDS011;36779;52.168;20.878;2023-03-20T03:54:23;59.00;;;23.30;;
50681;SDS011;36779;52.168;20.878;2023-03-20T03:57:20;55.50;;;21.70;;
50681;SDS011;36779;52.168;20.878;2023-03-20T03:59:55;42.20;;;18.40;;
50681;SDS011;36779;52.168;20.878;2023-03-20T04:02:40;48.50;;;20.60;;
50681;SDS011;36779;52.168;20.878;2023-03-20T04:05:11;56.20;;;22.40;;
50681;SDS011;36779;52.168;20.878;2023-03-20T04:07:44;58.60;;;23.20;;
50681;SDS011;36779;52.168;20.878;2023-03-20T04:10:14;63.40;;;24.40;;
50681;SDS011;36779;52.168;20.878;2023-03-20T04:12:43;58.10;;;24.20;;
50681;SDS011;36779;52.168;20.878;2023-03-20T04:15:13;62.90;;;23.90;;
50681;SDS011;36779;52.168;20.878;2023-03-20T04:17:44;58.10;;;23.40;;
50681;SDS011;36779;52.168;20.878;2023-03-20T04:20:14;56.10;;;22.30;;
50681;SDS011;36779;52.168;20.878;2023-03-20T04:22:45;60.10;;;22.00;;
50681;SDS011;36779;52.168;20.878;2023-03-20T04:25:16;59.70;;;23.10;;
50681;SDS011;36779;52.168;20.878;2023-03-20T04:27:49;61.70;;;23.50;;
50681;SDS011;36779;52.168;20.878;2023-03-20T04:30:37;59.70;;;22.60;;
50681;SDS011;36779;52.168;20.878;2023-03-20T04:33:50;56.20;;;21.90;;
50681;SDS011;36779;52.168;20.878;2023-03-20T04:36:20;52.60;;;22.60;;
50681;SDS011;36779;52.168;20.878;2023-03-20T04:38:52;61.30;;;22.60;;
50681;SDS011;36779;52.168;20.878;2023-03-20T04:41:24;50.00;;;20.30;;
50681;SDS011;36779;52.168;20.878;2023-03-20T04:43:57;62.10;;;23.10;;
50681;SDS011;36779;52.168;20.878;2023-03-20T04:46:28;57.70;;;22.50;;
50681;SDS011;36779;52.168;20.878;2023-03-20T04:49:00;62.70;;;24.20;;
50681;SDS011;36779;52.168;20.878;2023-03-20T04:51:33;54.00;;;22.20;;
50681;SDS011;36779;52.168;20.878;2023-03-20T04:54:03;60.70;;;24.00;;
50681;SDS011;36779;52.168;20.878;2023-03-20T04:56:32;55.70;;;23.00;;
50681;SDS011;36779;52.168;20.878;2023-03-20T04:59:12;53.10;;;22.60;;
50681;SDS011;36779;52.168;20.878;2023-03-20T05:01:41;56.70;;;22.10;;
50681;SDS011;36779;52.168;20.878;2023-03-20T05:04:13;53.80;;;23.00;;
50681;SDS011;36779;52.168;20.878;2023-03-20T05:06:46;61.30;;;22.60;;
50681;SDS011;36779;52.168;20.878;2023-03-20T05:09:20;56.10;;;24.40;;
50681;SDS011;36779;52.168;20.878;2023-03-20T05:11:54;61.00;;;23.60;;
50681;SDS011;36779;52.168;20.878;2023-03-20T05:14:43;63.60;;;23.60;;
50681;SDS011;36779;52.168;20.878;2023-03-20T05:17:32;58.90;;;22.30;;
50681;SDS011;36779;52.168;20.878;2023-03-20T05:20:21;56.50;;;22.80;;
50681;SDS011;36779;52.168;20.878;2023-03-20T05:23:05;56.80;;;22.80;;
50681;SDS011;36779;52.168;20.878;2023-03-20T05:25:49;50.80;;;21.90;;
50681;SDS011;36779;52.168;20.878;2023-03-20T05:28:42;51.00;;;22.00;;
50681;SDS011;36779;52.168;20.878;2023-03-20T05:31:30;66.60;;;22.80;;
50681;SDS011;36779;52.168;20.878;2023-03-20T05:34:03;60.80;;;22.80;;
50681;SDS011;36779;52.168;20.878;2023-03-20T05:36:59;60.40;;;24.00;;
50681;SDS011;36779;52.168;20.878;2023-03-20T05:39:54;57.70;;;22.80;;
50681;SDS011;36779;52.168;20.878;2023-03-20T05:42:40;53.10;;;23.20;;
50681;SDS011;36779;52.168;20.878;2023-03-20T05:45:27;57.50;;;23.60;;
50681;SDS011;36779;52.168;20.878;2023-03-20T05:48:19;59.60;;;23.80;;
50681;SDS011;36779;52.168;20.878;2023-03-20T05:51:11;62.90;;;23.40;;
50681;SDS011;36779;52.168;20.878;2023-03-20T05:54:12;57.20;;;23.70;;
50681;SDS011;36779;52.168;20.878;2023-03-20T05:56:58;58.40;;;23.90;;
50681;SDS011;36779;52.168;20.878;2023-03-20T05:59:46;65.70;;;25.70;;
50681;SDS011;36779;52.168;20.878;2023-03-20T06:02:52;55.50;;;23.70;;
50681;SDS011;36779;52.168;20.878;2023-03-20T06:05:40;61.70;;;24.20;;
50681;SDS011;36779;52.168;20.878;2023-03-20T06:08:11;57.60;;;23.20;;
50681;SDS011;36779;52.168;20.878;2023-03-20T06:10:40;60.60;;;24.40;;
50681;SDS011;36779;52.168;20.878;2023-03-20T06:13:12;59.90;;;23.80;;
50681;SDS011;36779;52.168;20.878;2023-03-20T06:15:41;61.50;;;24.20;;
50681;SDS011;36779;52.168;20.878;2023-03-20T06:18:15;51.70;;;22.30;;
50681;SDS011;36779;52.168;20.878;2023-03-20T06:20:43;53.30;;;22.60;;
50681;SDS011;36779;52.168;20.878;2023-03-20T06:23:14;46.40;;;21.10;;
50681;SDS011;36779;52.168;20.878;2023-03-20T06:25:43;42.30;;;19.40;;
50681;SDS011;36779;52.168;20.878;2023-03-20T06:28:13;44.60;;;18.90;;
50681;SDS011;36779;52.168;20.878;2023-03-20T06:30:43;44.60;;;19.50;;
50681;SDS011;36779;52.168;20.878;2023-03-20T06:33:15;51.30;;;20.00;;
50681;SDS011;36779;52.168;20.878;2023-03-20T06:35:58;41.80;;;19.70;;
50681;SDS011;36779;52.168;20.878;2023-03-20T06:38:29;41.60;;;21.20;;
50681;SDS011;36779;52.168;20.878;2023-03-20T06:40:58;48.30;;;21.10;;
50681;SDS011;36779;52.168;20.878;2023-03-20T06:43:28;45.20;;;21.30;;
50681;SDS011;36779;52.168;20.878;2023-03-20T06:45:57;49.70;;;24.30;;
50681;SDS011;36779;52.168;20.878;2023-03-20T06:48:28;46.60;;;21.90;;
50681;SDS011;36779;52.168;20.878;2023-03-20T06:50:57;46.40;;;22.60;;
50681;SDS011;36779;52.168;20.878;2023-03-20T06:53:31;43.40;;;22.20;;
50681;SDS011;36779;52.168;20.878;2023-03-20T06:56:04;43.70;;;23.80;;
50681;SDS011;36779;52.168;20.878;2023-03-20T06:58:35;47.10;;;24.30;;
50681;SDS011;36779;52.168;20.878;2023-03-20T07:01:08;43.60;;;23.20;;
50681;SDS011;36779;52.168;20.878;2023-03-20T07:03:39;44.20;;;22.60;;
50681;SDS011;36779;52.168;20.878;2023-03-20T07:06:09;49.40;;;31.30;;
50681;SDS011;36779;52.168;20.878;2023-03-20T07:08:39;43.60;;;20.80;;
50681;SDS011;36779;52.168;20.878;2023-03-20T07:11:10;51.10;;;25.70;;
50681;SDS011;36779;52.168;20.878;2023-03-20T07:13:39;46.70;;;25.60;;
50681;SDS011;36779;52.168;20.878;2023-03-20T07:16:17;42.70;;;21.80;;
50681;SDS011;36779;52.168;20.878;2023-03-20T07:18:50;49.90;;;26.10;;
50681;SDS011;36779;52.168;20.878;2023-03-20T07:21:20;46.20;;;24.00;;
50681;SDS011;36779;52.168;20.878;2023-03-20T07:23:53;45.40;;;31.60;;
50681;SDS011;36779;52.168;20.878;2023-03-20T07:26:29;53.30;;;26.10;;
50681;SDS011;36779;52.168;20.878;2023-03-20T07:28:58;49.10;;;33.00;;
50681;SDS011;36779;52.168;20.878;2023-03-20T07:31:28;48.80;;;32.50;;
50681;SDS011;36779;52.168;20.878;2023-03-20T07:34:09;44.80;;;22.50;;
50681;SDS011;36779;52.168;20.878;2023-03-20T07:36:41;51.20;;;33.40;;
50681;SDS011;36779;52.168;20.878;2023-03-20T07:39:11;52.10;;;34.20;;
50681;SDS011;36779;52.168;20.878;2023-03-20T07:41:43;57.50;;;34.90;;
50681;SDS011;36779;52.168;20.878;2023-03-20T07:44:21;46.40;;;24.90;;
50681;SDS011;36779;52.168;20.878;2023-03-20T07:46:55;42.40;;;23.90;;
50681;SDS011;36779;52.168;20.878;2023-03-20T07:49:25;49.60;;;34.00;;
50681;SDS011;36779;52.168;20.878;2023-03-20T07:51:56;47.40;;;33.90;;
50681;SDS011;36779;52.168;20.878;2023-03-20T07:54:26;47.30;;;23.60;;
50681;SDS011;36779;52.168;20.878;2023-03-20T07:56:57;47.20;;;34.30;;
50681;SDS011;36779;52.168;20.878;2023-03-20T07:59:27;51.90;;;34.40;;
50681;SDS011;36779;52.168;20.878;2023-03-20T08:01:57;52.00;;;34.20;;
50681;SDS011;36779;52.168;20.878;2023-03-20T08:04:28;52.80;;;33.20;;
50681;SDS011;36779;52.168;20.878;2023-03-20T08:06:57;55.50;;;34.50;;
50681;SDS011;36779;52.168;20.878;2023-03-20T08:09:27;47.10;;;29.40;;
50681;SDS011;36779;52.168;20.878;2023-03-20T08:11:57;48.40;;;31.60;;
50681;SDS011;36779;52.168;20.878;2023-03-20T08:14:29;45.40;;;30.90;;
50681;SDS011;36779;52.168;20.878;2023-03-20T08:17:01;49.30;;;30.80;;
50681;SDS011;36779;52.168;20.878;2023-03-20T08:19:41;43.20;;;26.60;;
50681;SDS011;36779;52.168;20.878;2023-03-20T08:22:11;53.20;;;34.20;;
50681;SDS011;36779;52.168;20.878;2023-03-20T08:24:40;47.20;;;29.10;;
50681;SDS011;36779;52.168;20.878;2023-03-20T08:27:09;46.80;;;24.10;;
50681;SDS011;36779;52.168;20.878;2023-03-20T08:29:39;46.20;;;24.00;;
50681;SDS011;36779;52.168;20.878;2023-03-20T08:32:07;44.80;;;29.70;;
50681;SDS011;36779;52.168;20.878;2023-03-20T08:34:38;43.80;;;27.20;;
50681;SDS011;36779;52.168;20.878;2023-03-20T08:37:06;42.60;;;29.30;;
50681;SDS011;36779;52.168;20.878;2023-03-20T08:39:37;44.50;;;27.80;;
50681;SDS011;36779;52.168;20.878;2023-03-20T08:42:06;42.60;;;30.80;;
50681;SDS011;36779;52.168;20.878;2023-03-20T08:44:35;49.90;;;32.10;;
50681;SDS011;36779;52.168;20.878;2023-03-20T08:47:03;51.00;;;34.10;;
50681;SDS011;36779;52.168;20.878;2023-03-20T08:49:41;49.90;;;23.80;;
50681;SDS011;36779;52.168;20.878;2023-03-20T08:52:11;50.60;;;35.60;;
50681;SDS011;36779;52.168;20.878;2023-03-20T08:54:39;57.60;;;31.90;;
50681;SDS011;36779;52.168;20.878;2023-03-20T08:57:08;50.60;;;30.50;;
50681;SDS011;36779;52.168;20.878;2023-03-20T08:59:39;44.20;;;22.90;;
50681;SDS011;36779;52.168;20.878;2023-03-20T09:02:09;43.70;;;29.80;;
50681;SDS011;36779;52.168;20.878;2023-03-20T09:04:41;43.60;;;26.30;;
50681;SDS011;36779;52.168;20.878;2023-03-20T09:07:10;45.90;;;28.20;;
50681;SDS011;36779;52.168;20.878;2023-03-20T09:09:39;36.60;;;23.20;;
50681;SDS011;36779;52.168;20.878;2023-03-20T09:12:07;34.90;;;15.50;;
50681;SDS011;36779;52.168;20.878;2023-03-20T09:14:38;36.80;;;23.40;;
50681;SDS011;36779;52.168;20.878;2023-03-20T09:17:07;49.20;;;36.60;;
50681;SDS011;36779;52.168;20.878;2023-03-20T09:19:37;40.50;;;28.40;;
50681;SDS011;36779;52.168;20.878;2023-03-20T09:22:08;35.60;;;24.40;;
50681;SDS011;36779;52.168;20.878;2023-03-20T09:24:40;41.30;;;25.30;;
50681;SDS011;36779;52.168;20.878;2023-03-20T09:27:09;37.00;;;23.10;;
50681;SDS011;36779;52.168;20.878;2023-03-20T09:29:40;31.80;;;21.30;;
50681;SDS011;36779;52.168;20.878;2023-03-20T09:32:11;34.40;;;19.60;;
50681;SDS011;36779;52.168;20.878;2023-03-20T09:34:41;29.80;;;19.10;;
50681;SDS011;36779;52.168;20.878;2023-03-20T09:37:12;29.80;;;20.30;;
50681;SDS011;36779;52.168;20.878;2023-03-20T09:39:41;30.20;;;20.90;;
50681;SDS011;36779;52.168;20.878;2023-03-20T09:42:16;28.20;;;18.60;;
50681;SDS011;36779;52.168;20.878;2023-03-20T09:44:54;29.30;;;19.90;;
50681;SDS011;36779;52.168;20.878;2023-03-20T09:47:48;25.80;;;19.30;;
50681;SDS011;36779;52.168;20.878;2023-03-20T09:50:50;25.10;;;17.10;;
50681;SDS011;36779;52.168;20.878;2023-03-20T09:53:30;28.30;;;18.70;;
50681;SDS011;36779;52.168;20.878;2023-03-20T09:56:04;27.00;;;17.60;;
50681;SDS011;36779;52.168;20.878;2023-03-20T09:58:40;23.50;;;16.60;;
50681;SDS011;36779;52.168;20.878;2023-03-20T10:01:12;25.90;;;17.20;;
50681;SDS011;36779;52.168;20.878;2023-03-20T10:03:42;29.80;;;19.30;;
50681;SDS011;36779;52.168;20.878;2023-03-20T10:06:16;38.30;;;19.50;;
50681;SDS011;36779;52.168;20.878;2023-03-20T10:08:50;28.70;;;20.00;;
50681;SDS011;36779;52.168;20.878;2023-03-20T10:11:27;27.20;;;19.90;;
50681;SDS011;36779;52.168;20.878;2023-03-20T10:14:08;33.50;;;21.60;;
50681;SDS011;36779;52.168;20.878;2023-03-20T10:16:47;34.40;;;21.60;;
50681;SDS011;36779;52.168;20.878;2023-03-20T10:19:28;32.50;;;22.20;;
50681;SDS011;36779;52.168;20.878;2023-03-20T10:22:03;32.80;;;22.30;;
50681;SDS011;36779;52.168;20.878;2023-03-20T10:24:39;35.70;;;23.90;;
50681;SDS011;36779;52.168;20.878;2023-03-20T10:27:14;35.50;;;24.70;;
50681;SDS011;36779;52.168;20.878;2023-03-20T10:29:50;39.30;;;27.30;;
50681;SDS011;36779;52.168;20.878;2023-03-20T10:32:28;37.70;;;27.00;;
50681;SDS011;36779;52.168;20.878;2023-03-20T10:35:09;47.30;;;27.40;;
50681;SDS011;36779;52.168;20.878;2023-03-20T10:37:47;40.30;;;26.50;;
50681;SDS011;36779;52.168;20.878;2023-03-20T10:40:26;45.60;;;28.80;;
50681;SDS011;36779;52.168;20.878;2023-03-20T10:42:59;48.80;;;29.60;;
50681;SDS011;36779;52.168;20.878;2023-03-20T10:45:33;50.00;;;30.80;;
50681;SDS011;36779;52.168;20.878;2023-03-20T10:48:11;47.10;;;32.00;;
50681;SDS011;36779;52.168;20.878;2023-03-20T10:50:47;46.40;;;31.90;;
50681;SDS011;36779;52.168;20.878;2023-03-20T10:53:22;49.60;;;31.90;;
50681;SDS011;36779;52.168;20.878;2023-03-20T10:55:56;44.90;;;31.10;;
50681;SDS011;36779;52.168;20.878;2023-03-20T10:58:29;42.70;;;30.00;;
50681;SDS011;36779;52.168;20.878;2023-03-20T11:01:02;47.60;;;31.10;;
50681;SDS011;36779;52.168;20.878;2023-03-20T11:03:32;45.60;;;29.90;;
50681;SDS011;36779;52.168;20.878;2023-03-20T11:06:08;46.90;;;30.30;;
50681;SDS011;36779;52.168;20.878;2023-03-20T11:08:50;52.80;;;32.00;;
50681;SDS011;36779;52.168;20.878;2023-03-20T11:11:21;49.50;;;31.80;;
50681;SDS011;36779;52.168;20.878;2023-03-20T11:13:57;48.10;;;31.40;;
50681;SDS011;36779;52.168;20.878;2023-03-20T11:16:42;40.40;;;28.60;;
50681;SDS011;36779;52.168;20.878;2023-03-20T11:19:17;41.20;;;28.20;;
50681;SDS011;36779;52.168;20.878;2023-03-20T11:21:47;40.20;;;29.00;;
50681;SDS011;36779;52.168;20.878;2023-03-20T11:24:28;37.10;;;26.30;;
50681;SDS011;36779;52.168;20.878;2023-03-20T11:27:07;36.90;;;26.10;;
50681;SDS011;36779;52.168;20.878;2023-03-20T11:29:38;45.30;;;29.00;;
50681;SDS011;36779;52.168;20.878;2023-03-20T11:32:16;42.10;;;29.00;;
50681;SDS011;36779;52.168;20.878;2023-03-20T11:34:54;40.30;;;26.70;;
50681;SDS011;36779;52.168;20.878;2023-03-20T11:37:24;41.10;;;26.70;;
50681;SDS011;36779;52.168;20.878;2023-03-20T11:39:56;40.70;;;28.00;;
50681;SDS011;36779;52.168;20.878;2023-03-20T11:42:27;43.90;;;27.70;;
50681;SDS011;36779;52.168;20.878;2023-03-20T11:44:58;43.50;;;28.50;;
50681;SDS011;36779;52.168;20.878;2023-03-20T11:47:31;39.70;;;28.20;;
50681;SDS011;36779;52.168;20.878;2023-03-20T11:50:03;38.10;;;27.70;;
50681;SDS011;36779;52.168;20.878;2023-03-20T11:52:34;39.70;;;27.80;;
50681;SDS011;36779;52.168;20.878;2023-03-20T11:55:06;38.80;;;27.30;;
50681;SDS011;36779;52.168;20.878;2023-03-20T11:57:51;40.40;;;27.80;;
50681;SDS011;36779;52.168;20.878;2023-03-20T12:00:26;39.60;;;27.20;;
50681;SDS011;36779;52.168;20.878;2023-03-20T12:02:56;35.20;;;25.40;;
50681;SDS011;36779;52.168;20.878;2023-03-20T12:05:30;37.30;;;26.90;;
50681;SDS011;36779;52.168;20.878;2023-03-20T12:08:03;38.60;;;26.00;;
50681;SDS011;36779;52.168;20.878;2023-03-20T12:10:40;37.60;;;26.90;;
50681;SDS011;36779;52.168;20.878;2023-03-20T12:13:13;37.60;;;28.10;;
50681;SDS011;36779;52.168;20.878;2023-03-20T12:15:48;38.10;;;24.20;;
50681;SDS011;36779;52.168;20.878;2023-03-20T12:18:23;39.30;;;26.40;;
50681;SDS011;36779;52.168;20.878;2023-03-20T12:21:01;40.60;;;26.20;;
50681;SDS011;36779;52.168;20.878;2023-03-20T12:23:36;30.80;;;23.80;;
50681;SDS011;36779;52.168;20.878;2023-03-20T12:26:10;33.30;;;18.10;;
50681;SDS011;36779;52.168;20.878;2023-03-20T12:28:46;37.60;;;23.90;;
50681;SDS011;36779;52.168;20.878;2023-03-20T12:31:24;36.60;;;23.00;;
50681;SDS011;36779;52.168;20.878;2023-03-20T12:33:58;38.90;;;20.70;;
50681;SDS011;36779;52.168;20.878;2023-03-20T12:36:33;38.60;;;25.40;;
50681;SDS011;36779;52.168;20.878;2023-03-20T12:39:10;31.50;;;18.90;;
50681;SDS011;36779;52.168;20.878;2023-03-20T12:41:46;33.00;;;21.00;;
50681;SDS011;36779;52.168;20.878;2023-03-20T12:44:30;31.90;;;19.70;;
50681;SDS011;36779;52.168;20.878;2023-03-20T12:47:13;25.20;;;16.80;;
50681;SDS011;36779;52.168;20.878;2023-03-20T12:50:06;24.20;;;18.90;;
50681;SDS011;36779;52.168;20.878;2023-03-20T12:52:47;23.70;;;13.60;;
50681;SDS011;36779;52.168;20.878;2023-03-20T12:55:32;23.30;;;13.40;;
50681;SDS011;36779;52.168;20.878;2023-03-20T12:58:13;24.50;;;18.70;;
50681;SDS011;36779;52.168;20.878;2023-03-20T13:00:54;23.40;;;14.80;;
50681;SDS011;36779;52.168;20.878;2023-03-20T13:03:50;23.60;;;14.80;;
50681;SDS011;36779;52.168;20.878;2023-03-20T13:06:34;24.60;;;16.70;;
50681;SDS011;36779;52.168;20.878;2023-03-20T13:09:17;24.60;;;15.00;;
50681;SDS011;36779;52.168;20.878;2023-03-20T13:12:19;25.20;;;16.80;;
50681;SDS011;36779;52.168;20.878;2023-03-20T13:14:59;30.60;;;18.80;;
50681;SDS011;36779;52.168;20.878;2023-03-20T13:17:43;34.30;;;21.90;;
50681;SDS011;36779;52.168;20.878;2023-03-20T13:20:21;39.70;;;23.10;;
50681;SDS011;36779;52.168;20.878;2023-03-20T13:23:12;38.00;;;21.10;;
50681;SDS011;36779;52.168;20.878;2023-03-20T13:25:57;36.20;;;22.80;;
50681;SDS011;36779;52.168;20.878;2023-03-20T13:28:43;40.50;;;22.30;;
50681;SDS011;36779;52.168;20.878;2023-03-20T13:31:25;35.70;;;22.20;;
50681;SDS011;36779;52.168;20.878;2023-03-20T13:34:05;40.80;;;24.40;;
50681;SDS011;36779;52.168;20.878;2023-03-20T13:36:48;34.80;;;21.90;;
50681;SDS011;36779;52.168;20.878;2023-03-20T13:39:51;39.00;;;22.40;;
50681;SDS011;36779;52.168;20.878;2023-03-20T13:42:28;41.00;;;24.20;;
50681;SDS011;36779;52.168;20.878;2023-03-20T13:45:03;33.40;;;20.10;;
50681;SDS011;36779;52.168;20.878;2023-03-20T13:47:38;36.80;;;20.70;;
50681;SDS011;36779;52.168;20.878;2023-03-20T13:50:16;38.20;;;21.70;;
50681;SDS011;36779;52.168;20.878;2023-03-20T13:52:56;33.80;;;18.60;;
50681;SDS011;36779;52.168;20.878;2023-03-20T13:55:31;33.50;;;19.30;;
50681;SDS011;36779;52.168;20.878;2023-03-20T13:58:10;35.30;;;20.60;;
50681;SDS011;36779;52.168;20.878;2023-03-20T14:00:53;28.90;;;16.10;;
50681;SDS011;36779;52.168;20.878;2023-03-20T14:03:32;34.40;;;19.20;;
50681;SDS011;36779;52.168;20.878;2023-03-20T14:06:15;34.40;;;19.60;;
50681;SDS011;36779;52.168;20.878;2023-03-20T14:08:52;32.30;;;19.60;;
50681;SDS011;36779;52.168;20.878;2023-03-20T14:11:26;32.00;;;16.70;;
50681;SDS011;36779;52.168;20.878;2023-03-20T14:14:04;32.10;;;18.90;;
50681;SDS011;36779;52.168;20.878;2023-03-20T14:19:12;29.70;;;15.60;;
50681;SDS011;36779;52.168;20.878;2023-03-20T14:21:45;29.00;;;15.40;;
50681;SDS011;36779;52.168;20.878;2023-03-20T14:24:16;27.60;;;17.30;;
50681;SDS011;36779;52.168;20.878;2023-03-20T14:26:47;32.80;;;19.40;;
50681;SDS011;36779;52.168;20.878;2023-03-20T14:29:20;34.60;;;19.60;;
50681;SDS011;36779;52.168;20.878;2023-03-20T14:32:04;37.00;;;20.60;;
50681;SDS011;36779;52.168;20.878;2023-03-20T14:34:58;37.20;;;19.90;;
50681;SDS011;36779;52.168;20.878;2023-03-20T14:37:52;36.00;;;21.40;;
50681;SDS011;36779;52.168;20.878;2023-03-20T14:40:39;34.20;;;20.90;;
50681;SDS011;36779;52.168;20.878;2023-03-20T14:43:18;37.50;;;19.40;;
50681;SDS011;36779;52.168;20.878;2023-03-20T14:45:56;38.00;;;20.60;;
50681;SDS011;36779;52.168;20.878;2023-03-20T14:48:30;31.30;;;19.20;;
50681;SDS011;36779;52.168;20.878;2023-03-20T14:51:06;30.30;;;19.20;;
50681;SDS011;36779;52.168;20.878;2023-03-20T14:53:49;35.70;;;19.80;;
50681;SDS011;36779;52.168;20.878;2023-03-20T14:56:30;27.90;;;16.80;;
50681;SDS011;36779;52.168;20.878;2023-03-20T14:59:03;29.20;;;16.30;;
50681;SDS011;36779;52.168;20.878;2023-03-20T15:01:39;25.40;;;14.40;;
50681;SDS011;36779;52.168;20.878;2023-03-20T15:07:11;30.50;;;17.60;;
50681;SDS011;36779;52.168;20.878;2023-03-20T15:09:44;28.60;;;14.80;;
50681;SDS011;36779;52.168;20.878;2023-03-20T15:12:15;23.20;;;14.20;;